sensor_id;sensor_type;location;lat;lon;timestamp;pressure;altitude;pressure_sealevel;temperature;humidity
13604;BME280;24578;48.264;11.436;2023-02-19T00:00:31;96586.25;;;9.50;100.00
13604;BME280;24578;48.264;11.436;2023-02-19T00:03:31;96579.16;;;9.39;100.00
13604;BME280;24578;48.264;11.436;2023-02-19T00:06:33;96582.31;;;9.44;100.00
13604;BME280;24578;48.264;11.436;2023-02-19T00:09:34;96577.88;;;9.46;100.00
13604;BME280;24578;48.264;11.436;2023-02-19T00:12:35;96573.34;;;9.50;100.00
13604;BME280;24578;48.264;11.436;2023-02-19T00:15:35;96574.16;;;9.50;100.00
13604;BME280;24578;48.264;11.436;2023-02-19T00:18:36;96570.00;;;9.48;100.00
13604;BME280;24578;48.264;11.436;2023-02-19T00:21:36;96565.69;;;9.48;100.00
13604;BME280;24578;48.264;11.436;2023-02-19T00:24:37;96557.38;;;9.43;100.00
13604;BME280;24578;48.264;11.436;2023-02-19T00:27:37;96568.47;;;9.45;100.00
13604;BME280;24578;48.264;11.436;2023-02-19T00:30:38;96561.00;;;9.40;100.00
13604;BME280;24578;48.264;11.436;2023-02-19T00:33:39;96560.59;;;9.47;100.00
13604;BME280;24578;48.264;11.436;2023-02-19T00:36:40;96562.84;;;9.38;100.00
13604;BME280;24578;48.264;11.436;2023-02-19T00:39:41;96553.25;;;9.40;100.00
13604;BME280;24578;48.264;11.436;2023-02-19T00:42:42;96551.78;;;9.36;100.00
13604;BME280;24578;48.264;11.436;2023-02-19T00:45:42;96553.50;;;9.36;100.00
13604;BME280;24578;48.264;11.436;2023-02-19T00:48:43;96546.03;;;9.45;100.00
13604;BME280;24578;48.264;11.436;2023-02-19T00:51:43;96536.09;;;9.39;100.00
13604;BME280;24578;48.264;11.436;2023-02-19T00:54:44;96538.44;;;9.42;100.00
13604;BME280;24578;48.264;11.436;2023-02-19T00:57:44;96536.91;;;9.40;100.00
13604;BME280;24578;48.264;11.436;2023-02-19T01:00:45;96539.16;;;9.32;100.00
13604;BME280;24578;48.264;11.436;2023-02-19T01:03:47;96535.91;;;9.28;100.00
13604;BME280;24578;48.264;11.436;2023-02-19T01:06:47;96540.50;;;9.37;100.00
13604;BME280;24578;48.264;11.436;2023-02-19T01:09:48;96537.00;;;9.38;100.00
13604;BME280;24578;48.264;11.436;2023-02-19T01:12:48;96534.06;;;9.30;100.00
13604;BME280;24578;48.264;11.436;2023-02-19T01:15:49;96534.63;;;9.35;100.00
13604;BME280;24578;48.264;11.436;2023-02-19T01:18:49;96527.19;;;9.43;100.00
13604;BME280;24578;48.264;11.436;2023-02-19T01:21:50;96531.06;;;9.51;100.00
13604;BME280;24578;48.264;11.436;2023-02-19T01:24:51;96532.47;;;9.42;100.00
13604;BME280;24578;48.264;11.436;2023-02-19T01:27:51;96520.38;;;9.42;100.00
13604;BME280;24578;48.264;11.436;2023-02-19T01:30:51;96522.44;;;9.37;100.00
13604;BME280;24578;48.264;11.436;2023-02-19T01:33:56;96511.19;;;9.38;100.00
13604;BME280;24578;48.264;11.436;2023-02-19T01:36:57;96506.38;;;9.32;100.00
13604;BME280;24578;48.264;11.436;2023-02-19T01:39:57;96503.50;;;9.37;100.00
13604;BME280;24578;48.264;11.436;2023-02-19T01:42:58;96491.28;;;9.26;100.00
13604;BME280;24578;48.264;11.436;2023-02-19T01:45:58;96491.72;;;9.33;100.00
13604;BME280;24578;48.264;11.436;2023-02-19T01:49:16;96493.38;;;9.34;100.00
13604;BME280;24578;48.264;11.436;2023-02-19T01:52:29;96494.25;;;9.20;100.00
13604;BME280;24578;48.264;11.436;2023-02-19T01:55:33;96489.22;;;9.31;100.00
13604;BME280;24578;48.264;11.436;2023-02-19T01:58:35;96495.66;;;9.38;100.00
13604;BME280;24578;48.264;11.436;2023-02-19T02:01:38;96484.59;;;9.36;100.00
13604;BME280;24578;48.264;11.436;2023-02-19T02:04:39;96486.44;;;9.34;100.00
13604;BME280;24578;48.264;11.436;2023-02-19T02:07:39;96469.84;;;9.38;100.00
13604;BME280;24578;48.264;11.436;2023-02-19T02:10:58;96485.63;;;9.34;100.00
13604;BME280;24578;48.264;11.436;2023-02-19T02:13:59;96473.66;;;9.33;100.00
13604;BME280;24578;48.264;11.436;2023-02-19T02:24:56;96459.16;;;9.30;100.00
13604;BME280;24578;48.264;11.436;2023-02-19T02:27:41;96457.66;;;9.40;100.00
13604;BME280;24578;48.264;11.436;2023-02-19T02:30:53;96448.94;;;9.28;100.00
13604;BME280;24578;48.264;11.436;2023-02-19T02:34:06;96439.81;;;9.23;100.00
13604;BME280;24578;48.264;11.436;2023-02-19T02:37:12;96440.31;;;9.28;100.00
13604;BME280;24578;48.264;11.436;2023-02-19T02:40:14;96443.56;;;9.32;100.00
13604;BME280;24578;48.264;11.436;2023-02-19T02:43:16;96445.22;;;9.33;100.00
13604;BME280;24578;48.264;11.436;2023-02-19T02:46:24;96432.31;;;9.33;100.00
13604;BME280;24578;48.264;11.436;2023-02-19T02:49:27;96423.34;;;9.38;100.00
13604;BME280;24578;48.264;11.436;2023-02-19T02:52:28;96431.22;;;9.50;100.00
13604;BME280;24578;48.264;11.436;2023-02-19T02:55:50;96416.50;;;9.37;100.00
13604;BME280;24578;48.264;11.436;2023-02-19T02:58:55;96426.97;;;9.21;100.00
13604;BME280;24578;48.264;11.436;2023-02-19T03:02:01;96418.75;;;9.29;100.00
13604;BME280;24578;48.264;11.436;2023-02-19T03:05:21;96410.63;;;9.08;100.00
13604;BME280;24578;48.264;11.436;2023-02-19T03:08:56;96410.81;;;9.05;100.00
13604;BME280;24578;48.264;11.436;2023-02-19T03:12:02;96399.78;;;8.88;100.00
13604;BME280;24578;48.264;11.436;2023-02-19T03:15:28;96414.34;;;8.62;100.00
13604;BME280;24578;48.264;11.436;2023-02-19T03:18:53;96403.44;;;8.42;100.00
13604;BME280;24578;48.264;11.436;2023-02-19T03:22:22;96395.09;;;8.53;100.00
13604;BME280;24578;48.264;11.436;2023-02-19T03:25:29;96392.84;;;8.47;100.00
13604;BME280;24578;48.264;11.436;2023-02-19T03:28:52;96395.09;;;8.53;100.00
13604;BME280;24578;48.264;11.436;2023-02-19T03:32:24;96404.72;;;8.35;100.00
13604;BME280;24578;48.264;11.436;2023-02-19T03:35:32;96403.28;;;8.16;100.00
13604;BME280;24578;48.264;11.436;2023-02-19T03:38:41;96404.25;;;7.99;100.00
13604;BME280;24578;48.264;11.436;2023-02-19T03:42:08;96405.00;;;8.01;100.00
13604;BME280;24578;48.264;11.436;2023-02-19T03:52:08;96408.94;;;7.78;100.00
13604;BME280;24578;48.264;11.436;2023-02-19T03:55:18;96411.19;;;7.99;100.00
13604;BME280;24578;48.264;11.436;2023-02-19T03:58:31;96405.34;;;7.95;100.00
13604;BME280;24578;48.264;11.436;2023-02-19T04:01:43;96412.88;;;7.69;100.00
13604;BME280;24578;48.264;11.436;2023-02-19T04:04:59;96397.13;;;7.74;100.00
13604;BME280;24578;48.264;11.436;2023-02-19T04:08:11;96395.69;;;7.70;100.00
13604;BME280;24578;48.264;11.436;2023-02-19T04:11:15;96389.81;;;7.82;100.00
13604;BME280;24578;48.264;11.436;2023-02-19T04:14:25;96385.91;;;7.75;100.00
13604;BME280;24578;48.264;11.436;2023-02-19T04:17:40;96391.34;;;7.85;100.00
13604;BME280;24578;48.264;11.436;2023-02-19T04:20:44;96404.41;;;7.82;100.00
13604;BME280;24578;48.264;11.436;2023-02-19T04:23:46;96391.50;;;7.67;100.00
13604;BME280;24578;48.264;11.436;2023-02-19T04:26:48;96394.34;;;7.62;100.00
13604;BME280;24578;48.264;11.436;2023-02-19T04:29:48;96402.63;;;7.53;100.00
13604;BME280;24578;48.264;11.436;2023-02-19T04:32:49;96414.19;;;7.46;100.00
13604;BME280;24578;48.264;11.436;2023-02-19T04:35:50;96415.41;;;7.85;100.00
13604;BME280;24578;48.264;11.436;2023-02-19T04:38:50;96424.22;;;7.81;100.00
13604;BME280;24578;48.264;11.436;2023-02-19T04:41:51;96425.84;;;7.68;100.00
13604;BME280;24578;48.264;11.436;2023-02-19T04:44:51;96426.78;;;7.67;100.00
13604;BME280;24578;48.264;11.436;2023-02-19T04:47:52;96428.59;;;7.65;100.00
13604;BME280;24578;48.264;11.436;2023-02-19T04:50:52;96431.66;;;7.71;100.00
13604;BME280;24578;48.264;11.436;2023-02-19T04:53:53;96428.31;;;7.69;100.00
13604;BME280;24578;48.264;11.436;2023-02-19T04:56:55;96435.88;;;7.72;100.00
13604;BME280;24578;48.264;11.436;2023-02-19T04:59:56;96426.03;;;7.65;100.00
13604;BME280;24578;48.264;11.436;2023-02-19T05:02:57;96448.56;;;7.61;100.00
13604;BME280;24578;48.264;11.436;2023-02-19T05:06:04;96438.44;;;7.58;100.00
13604;BME280;24578;48.264;11.436;2023-02-19T05:09:05;96423.53;;;7.63;100.00
13604;BME280;24578;48.264;11.436;2023-02-19T05:12:05;96428.94;;;7.58;100.00
13604;BME280;24578;48.264;11.436;2023-02-19T05:15:06;96444.97;;;7.64;100.00
13604;BME280;24578;48.264;11.436;2023-02-19T05:18:07;96429.88;;;7.72;100.00
13604;BME280;24578;48.264;11.436;2023-02-19T05:21:09;96432.66;;;7.69;100.00
13604;BME280;24578;48.264;11.436;2023-02-19T05:24:09;96438.06;;;7.64;100.00
13604;BME280;24578;48.264;11.436;2023-02-19T05:27:10;96451.56;;;7.53;100.00
13604;BME280;24578;48.264;11.436;2023-02-19T05:30:11;96441.69;;;7.45;100.00
13604;BME280;24578;48.264;11.436;2023-02-19T05:33:12;96452.91;;;7.44;100.00
13604;BME280;24578;48.264;11.436;2023-02-19T05:36:13;96449.72;;;7.55;100.00
13604;BME280;24578;48.264;11.436;2023-02-19T05:39:14;96449.38;;;7.61;100.00
13604;BME280;24578;48.264;11.436;2023-02-19T05:42:14;96453.63;;;7.62;100.00
13604;BME280;24578;48.264;11.436;2023-02-19T05:45:15;96462.38;;;7.60;100.00
13604;BME280;24578;48.264;11.436;2023-02-19T05:48:15;96463.44;;;7.56;100.00
13604;BME280;24578;48.264;11.436;2023-02-19T05:51:18;96457.44;;;7.55;100.00
13604;BME280;24578;48.264;11.436;2023-02-19T05:54:19;96465.00;;;7.58;100.00
13604;BME280;24578;48.264;11.436;2023-02-19T05:57:19;96462.44;;;7.58;100.00
13604;BME280;24578;48.264;11.436;2023-02-19T06:00:21;96459.66;;;7.77;100.00
13604;BME280;24578;48.264;11.436;2023-02-19T06:03:22;96458.22;;;7.72;100.00
13604;BME280;24578;48.264;11.436;2023-02-19T06:06:23;96463.34;;;7.57;100.00
13604;BME280;24578;48.264;11.436;2023-02-19T06:09:24;96466.50;;;7.62;100.00
13604;BME280;24578;48.264;11.436;2023-02-19T06:12:24;96468.50;;;7.57;100.00
13604;BME280;24578;48.264;11.436;2023-02-19T06:15:25;96478.91;;;7.56;100.00
13604;BME280;24578;48.264;11.436;2023-02-19T06:18:25;96477.22;;;7.55;100.00
13604;BME280;24578;48.264;11.436;2023-02-19T06:21:26;96481.38;;;7.57;100.00
13604;BME280;24578;48.264;11.436;2023-02-19T06:24:26;96483.88;;;7.59;100.00
13604;BME280;24578;48.264;11.436;2023-02-19T06:27:27;96478.38;;;7.65;100.00
13604;BME280;24578;48.264;11.436;2023-02-19T06:30:27;96482.78;;;7.63;100.00
13604;BME280;24578;48.264;11.436;2023-02-19T06:33:28;96489.41;;;7.67;100.00
13604;BME280;24578;48.264;11.436;2023-02-19T06:36:29;96503.16;;;7.52;100.00
13604;BME280;24578;48.264;11.436;2023-02-19T06:39:30;96498.00;;;7.52;100.00
13604;BME280;24578;48.264;11.436;2023-02-19T06:42:31;96486.47;;;7.59;100.00
13604;BME280;24578;48.264;11.436;2023-02-19T06:45:32;96500.38;;;7.71;100.00
13604;BME280;24578;48.264;11.436;2023-02-19T06:48:33;96517.34;;;7.75;100.00
13604;BME280;24578;48.264;11.436;2023-02-19T06:51:34;96515.69;;;8.04;100.00
13604;BME280;24578;48.264;11.436;2023-02-19T06:54:35;96528.47;;;8.06;100.00
13604;BME280;24578;48.264;11.436;2023-02-19T06:57:35;96523.59;;;8.01;100.00
13604;BME280;24578;48.264;11.436;2023-02-19T07:00:36;96535.25;;;7.92;100.00
13604;BME280;24578;48.264;11.436;2023-02-19T07:03:36;96542.69;;;8.13;100.00
13604;BME280;24578;48.264;11.436;2023-02-19T07:06:38;96551.53;;;8.23;100.00
13604;BME280;24578;48.264;11.436;2023-02-19T07:09:38;96548.31;;;8.20;100.00
13604;BME280;24578;48.264;11.436;2023-02-19T07:12:39;96563.09;;;8.02;100.00
13604;BME280;24578;48.264;11.436;2023-02-19T07:15:39;96558.88;;;7.85;100.00
13604;BME280;24578;48.264;11.436;2023-02-19T07:18:40;96571.16;;;7.96;100.00
13604;BME280;24578;48.264;11.436;2023-02-19T07:21:41;96577.25;;;7.78;100.00
13604;BME280;24578;48.264;11.436;2023-02-19T07:24:41;96589.31;;;7.78;100.00
13604;BME280;24578;48.264;11.436;2023-02-19T07:27:42;96583.78;;;7.70;100.00
13604;BME280;24578;48.264;11.436;2023-02-19T07:30:42;96586.91;;;7.75;100.00
13604;BME280;24578;48.264;11.436;2023-02-19T07:33:43;96586.75;;;7.78;100.00
13604;BME280;24578;48.264;11.436;2023-02-19T07:36:44;96586.59;;;7.81;100.00
13604;BME280;24578;48.264;11.436;2023-02-19T07:39:45;96598.13;;;7.74;100.00
13604;BME280;24578;48.264;11.436;2023-02-19T07:42:45;96604.03;;;7.44;100.00
13604;BME280;24578;48.264;11.436;2023-02-19T07:45:46;96607.78;;;7.38;100.00
13604;BME280;24578;48.264;11.436;2023-02-19T07:48:47;96627.22;;;7.44;100.00
13604;BME280;24578;48.264;11.436;2023-02-19T07:51:47;96621.91;;;7.31;100.00
13604;BME280;24578;48.264;11.436;2023-02-19T07:54:48;96635.59;;;7.31;100.00
13604;BME280;24578;48.264;11.436;2023-02-19T07:57:49;96635.78;;;7.44;100.00
13604;BME280;24578;48.264;11.436;2023-02-19T08:00:49;96641.69;;;7.46;100.00
13604;BME280;24578;48.264;11.436;2023-02-19T08:03:50;96645.25;;;7.44;100.00
13604;BME280;24578;48.264;11.436;2023-02-19T08:06:52;96639.84;;;7.32;100.00
13604;BME280;24578;48.264;11.436;2023-02-19T08:09:52;96646.31;;;7.40;100.00
13604;BME280;24578;48.264;11.436;2023-02-19T08:13:14;96646.31;;;7.40;100.00
13604;BME280;24578;48.264;11.436;2023-02-19T08:16:19;96650.75;;;7.54;100.00
13604;BME280;24578;48.264;11.436;2023-02-19T08:19:20;96640.47;;;7.70;100.00
13604;BME280;24578;48.264;11.436;2023-02-19T08:22:21;96645.50;;;8.03;100.00
13604;BME280;24578;48.264;11.436;2023-02-19T08:25:22;96652.59;;;8.30;100.00
13604;BME280;24578;48.264;11.436;2023-02-19T08:28:23;96654.47;;;8.59;100.00
13604;BME280;24578;48.264;11.436;2023-02-19T08:31:24;96651.88;;;9.04;100.00
13604;BME280;24578;48.264;11.436;2023-02-19T08:34:24;96648.56;;;9.45;100.00
13604;BME280;24578;48.264;11.436;2023-02-19T08:37:25;96662.94;;;9.35;100.00
13604;BME280;24578;48.264;11.436;2023-02-19T08:40:26;96671.44;;;9.37;100.00
13604;BME280;24578;48.264;11.436;2023-02-19T08:43:26;96666.38;;;9.35;100.00
13604;BME280;24578;48.264;11.436;2023-02-19T08:46:27;96665.41;;;9.65;100.00
13604;BME280;24578;48.264;11.436;2023-02-19T08:49:27;96681.69;;;9.38;100.00
13604;BME280;24578;48.264;11.436;2023-02-19T08:52:28;96682.41;;;9.11;100.00
13604;BME280;24578;48.264;11.436;2023-02-19T08:55:28;96681.41;;;8.69;100.00
13604;BME280;24578;48.264;11.436;2023-02-19T08:58:29;96690.66;;;8.73;100.00
13604;BME280;24578;48.264;11.436;2023-02-19T09:01:29;96691.94;;;8.80;100.00
13604;BME280;24578;48.264;11.436;2023-02-19T09:04:30;96682.97;;;9.45;100.00
13604;BME280;24578;48.264;11.436;2023-02-19T09:07:31;96700.59;;;9.53;100.00
13604;BME280;24578;48.264;11.436;2023-02-19T09:10:31;96706.69;;;9.23;100.00
13604;BME280;24578;48.264;11.436;2023-02-19T09:13:32;96698.22;;;8.76;100.00
13604;BME280;24578;48.264;11.436;2023-02-19T09:16:34;96706.75;;;8.46;100.00
13604;BME280;24578;48.264;11.436;2023-02-19T09:19:34;96698.72;;;8.67;100.00
13604;BME280;24578;48.264;11.436;2023-02-19T09:22:41;96709.34;;;8.46;100.00
13604;BME280;24578;48.264;11.436;2023-02-19T09:25:42;96701.69;;;9.78;100.00
13604;BME280;24578;48.264;11.436;2023-02-19T09:28:42;96707.91;;;11.76;100.00
13604;BME280;24578;48.264;11.436;2023-02-19T09:31:43;96700.69;;;13.48;100.00
13604;BME280;24578;48.264;11.436;2023-02-19T09:34:43;96690.66;;;14.32;91.96
13604;BME280;24578;48.264;11.436;2023-02-19T09:37:44;96692.66;;;15.36;81.32
13604;BME280;24578;48.264;11.436;2023-02-19T09:40:44;96710.63;;;13.31;88.10
13604;BME280;24578;48.264;11.436;2023-02-19T09:43:45;96706.94;;;11.90;94.16
13604;BME280;24578;48.264;11.436;2023-02-19T09:46:49;96723.50;;;11.11;100.00
13604;BME280;24578;48.264;11.436;2023-02-19T09:50:16;96721.41;;;10.35;100.00
13604;BME280;24578;48.264;11.436;2023-02-19T09:53:25;96725.66;;;10.09;100.00
13604;BME280;24578;48.264;11.436;2023-02-19T09:56:29;96722.09;;;10.25;100.00
13604;BME280;24578;48.264;11.436;2023-02-19T09:59:41;96722.38;;;10.75;100.00
13604;BME280;24578;48.264;11.436;2023-02-19T10:02:44;96729.31;;;11.27;99.79
13604;BME280;24578;48.264;11.436;2023-02-19T10:05:44;96730.63;;;11.20;99.37
13604;BME280;24578;48.264;11.436;2023-02-19T10:08:47;96722.53;;;11.64;100.00
13604;BME280;24578;48.264;11.436;2023-02-19T10:11:48;96711.47;;;12.96;92.44
13604;BME280;24578;48.264;11.436;2023-02-19T10:14:53;96730.72;;;14.97;81.23
13604;BME280;24578;48.264;11.436;2023-02-19T10:17:57;96727.69;;;13.58;82.17
13604;BME280;24578;48.264;11.436;2023-02-19T10:20:57;96724.84;;;13.73;82.80
13604;BME280;24578;48.264;11.436;2023-02-19T10:24:04;96729.50;;;16.15;68.66
13604;BME280;24578;48.264;11.436;2023-02-19T10:27:11;96731.81;;;15.98;64.29
13604;BME280;24578;48.264;11.436;2023-02-19T10:30:20;96739.88;;;14.80;64.79
13604;BME280;24578;48.264;11.436;2023-02-19T10:33:22;96745.66;;;13.61;71.39
13604;BME280;24578;48.264;11.436;2023-02-19T10:36:34;96748.56;;;12.98;74.35
13604;BME280;24578;48.264;11.436;2023-02-19T10:39:48;96751.69;;;12.55;76.70
13604;BME280;24578;48.264;11.436;2023-02-19T10:42:55;96761.91;;;11.95;79.66
13604;BME280;24578;48.264;11.436;2023-02-19T10:46:01;96750.25;;;11.63;81.82
13604;BME280;24578;48.264;11.436;2023-02-19T10:49:06;96750.13;;;11.65;84.15
13604;BME280;24578;48.264;11.436;2023-02-19T10:52:22;96727.16;;;14.10;69.01
13604;BME280;24578;48.264;11.436;2023-02-19T10:55:30;96717.28;;;13.92;68.47
13604;BME280;24578;48.264;11.436;2023-02-19T10:58:31;96715.38;;;13.83;68.10
13604;BME280;24578;48.264;11.436;2023-02-19T11:01:33;96716.69;;;13.54;67.16
13604;BME280;24578;48.264;11.436;2023-02-19T11:04:34;96706.28;;;12.96;67.38
13604;BME280;24578;48.264;11.436;2023-02-19T11:07:52;96706.44;;;13.17;67.17
13604;BME280;24578;48.264;11.436;2023-02-19T11:10:54;96700.22;;;14.43;62.34
13604;BME280;24578;48.264;11.436;2023-02-19T11:13:56;96696.97;;;15.47;60.71
13604;BME280;24578;48.264;11.436;2023-02-19T11:17:00;96695.50;;;15.95;59.38
13604;BME280;24578;48.264;11.436;2023-02-19T11:20:13;96691.06;;;16.47;54.96
13604;BME280;24578;48.264;11.436;2023-02-19T11:26:29;96708.41;;;15.66;56.37
13604;BME280;24578;48.264;11.436;2023-02-19T11:29:32;96707.94;;;16.23;56.44
13604;BME280;24578;48.264;11.436;2023-02-19T11:32:35;96698.75;;;16.38;52.46
13604;BME280;24578;48.264;11.436;2023-02-19T11:35:35;96713.97;;;14.99;54.33
13604;BME280;24578;48.264;11.436;2023-02-19T11:38:36;96729.09;;;13.85;58.50
13604;BME280;24578;48.264;11.436;2023-02-19T11:48:48;96731.16;;;12.27;69.17
13604;BME280;24578;48.264;11.436;2023-02-19T11:55:36;96721.59;;;11.78;70.07
13604;BME280;24578;48.264;11.436;2023-02-19T12:02:10;96719.09;;;11.76;72.85
13604;BME280;24578;48.264;11.436;2023-02-19T12:18:21;96713.22;;;12.84;64.57
13604;BME280;24578;48.264;11.436;2023-02-19T12:44:40;96775.44;;;9.98;79.84
13604;BME280;24578;48.264;11.436;2023-02-19T12:47:53;96773.97;;;9.80;83.21
13604;BME280;24578;48.264;11.436;2023-02-19T12:51:06;96778.06;;;9.84;79.57
13604;BME280;24578;48.264;11.436;2023-02-19T12:54:20;96780.44;;;9.87;81.45
13604;BME280;24578;48.264;11.436;2023-02-19T12:57:30;96778.22;;;9.95;82.26
13604;BME280;24578;48.264;11.436;2023-02-19T13:00:40;96771.84;;;10.01;81.55
13604;BME280;24578;48.264;11.436;2023-02-19T13:03:51;96772.44;;;10.33;82.41
13604;BME280;24578;48.264;11.436;2023-02-19T13:07:17;96762.72;;;10.37;80.42
13604;BME280;24578;48.264;11.436;2023-02-19T13:10:25;96752.03;;;10.14;83.50
13604;BME280;24578;48.264;11.436;2023-02-19T13:13:48;96740.34;;;9.94;87.22
13604;BME280;24578;48.264;11.436;2023-02-19T13:16:57;96746.56;;;9.92;87.61
13604;BME280;24578;48.264;11.436;2023-02-19T13:23:37;96757.22;;;10.56;87.33
13604;BME280;24578;48.264;11.436;2023-02-19T13:30:46;96755.69;;;10.94;83.96
13604;BME280;24578;48.264;11.436;2023-02-19T13:34:08;96743.66;;;10.93;84.58
13604;BME280;24578;48.264;11.436;2023-02-19T13:37:15;96741.38;;;10.48;86.62
13604;BME280;24578;48.264;11.436;2023-02-19T13:40:28;96732.25;;;10.42;86.01
13604;BME280;24578;48.264;11.436;2023-02-19T13:43:33;96748.78;;;10.40;85.21
13604;BME280;24578;48.264;11.436;2023-02-19T13:46:41;96753.22;;;10.23;88.08
13604;BME280;24578;48.264;11.436;2023-02-19T13:49:47;96764.19;;;9.99;88.12
13604;BME280;24578;48.264;11.436;2023-02-19T13:52:49;96759.06;;;10.12;88.29
13604;BME280;24578;48.264;11.436;2023-02-19T13:55:51;96745.06;;;10.44;85.83
13604;BME280;24578;48.264;11.436;2023-02-19T13:59:11;96748.50;;;10.30;84.29
13604;BME280;24578;48.264;11.436;2023-02-19T14:02:25;96745.91;;;10.02;85.14
13604;BME280;24578;48.264;11.436;2023-02-19T14:06:07;96746.75;;;10.30;85.15
13604;BME280;24578;48.264;11.436;2023-02-19T14:12:38;96779.97;;;10.36;86.06
13604;BME280;24578;48.264;11.436;2023-02-19T14:15:42;96766.56;;;10.17;84.62
13604;BME280;24578;48.264;11.436;2023-02-19T14:18:45;96767.31;;;10.19;84.59
13604;BME280;24578;48.264;11.436;2023-02-19T14:21:45;96761.84;;;10.24;84.08
13604;BME280;24578;48.264;11.436;2023-02-19T14:24:47;96762.25;;;9.74;84.98
13604;BME280;24578;48.264;11.436;2023-02-19T14:27:50;96771.94;;;9.85;85.42
13604;BME280;24578;48.264;11.436;2023-02-19T14:30:59;96779.25;;;9.78;84.58
13604;BME280;24578;48.264;11.436;2023-02-19T14:34:04;96769.16;;;9.59;87.02
13604;BME280;24578;48.264;11.436;2023-02-19T14:37:16;96775.06;;;9.75;86.45
13604;BME280;24578;48.264;11.436;2023-02-19T14:40:24;96772.88;;;9.84;86.92
13604;BME280;24578;48.264;11.436;2023-02-19T14:43:27;96753.84;;;9.99;86.44
13604;BME280;24578;48.264;11.436;2023-02-19T14:46:32;96762.13;;;9.90;86.75
13604;BME280;24578;48.264;11.436;2023-02-19T14:50:04;96756.06;;;9.48;90.22
13604;BME280;24578;48.264;11.436;2023-02-19T14:53:08;96770.09;;;9.58;91.05
13604;BME280;24578;48.264;11.436;2023-02-19T14:56:22;96773.97;;;9.65;89.85
13604;BME280;24578;48.264;11.436;2023-02-19T14:59:27;96759.22;;;9.38;91.58
13604;BME280;24578;48.264;11.436;2023-02-19T15:02:30;96754.84;;;9.39;91.57
13604;BME280;24578;48.264;11.436;2023-02-19T15:05:34;96784.03;;;9.41;92.35
13604;BME280;24578;48.264;11.436;2023-02-19T15:08:42;96780.41;;;9.43;92.25
13604;BME280;24578;48.264;11.436;2023-02-19T15:11:44;96785.97;;;9.37;92.64
13604;BME280;24578;48.264;11.436;2023-02-19T15:14:46;96807.00;;;9.45;91.84
13604;BME280;24578;48.264;11.436;2023-02-19T15:17:50;96812.84;;;9.49;88.46
13604;BME280;24578;48.264;11.436;2023-02-19T15:20:59;96813.66;;;9.50;90.13
13604;BME280;24578;48.264;11.436;2023-02-19T15:24:04;96829.72;;;9.55;92.80
13604;BME280;24578;48.264;11.436;2023-02-19T15:27:05;96834.34;;;9.64;93.71
13604;BME280;24578;48.264;11.436;2023-02-19T15:30:24;96833.59;;;9.62;93.50
13604;BME280;24578;48.264;11.436;2023-02-19T15:33:26;96841.31;;;9.78;92.14
13604;BME280;24578;48.264;11.436;2023-02-19T15:36:31;96839.16;;;9.56;92.67
13604;BME280;24578;48.264;11.436;2023-02-19T15:39:37;96822.56;;;9.29;91.39
13604;BME280;24578;48.264;11.436;2023-02-19T15:42:43;96822.81;;;8.94;91.03
13604;BME280;24578;48.264;11.436;2023-02-19T15:45:47;96834.09;;;8.77;87.38
13604;BME280;24578;48.264;11.436;2023-02-19T15:52:02;96839.13;;;8.48;86.71
13604;BME280;24578;48.264;11.436;2023-02-19T15:58:27;96832.69;;;8.40;87.54
13604;BME280;24578;48.264;11.436;2023-02-19T16:01:36;96828.66;;;8.34;91.96
13604;BME280;24578;48.264;11.436;2023-02-19T16:04:42;96835.88;;;8.11;100.00
13604;BME280;24578;48.264;11.436;2023-02-19T16:07:43;96836.03;;;8.08;100.00
13604;BME280;24578;48.264;11.436;2023-02-19T16:10:59;96834.47;;;8.05;100.00
13604;BME280;24578;48.264;11.436;2023-02-19T16:14:32;96831.09;;;7.87;100.00
13604;BME280;24578;48.264;11.436;2023-02-19T16:17:32;96839.06;;;7.83;100.00
13604;BME280;24578;48.264;11.436;2023-02-19T16:20:34;96852.50;;;7.72;100.00
13604;BME280;24578;48.264;11.436;2023-02-19T16:23:41;96847.22;;;7.57;100.00
13604;BME280;24578;48.264;11.436;2023-02-19T16:26:44;96855.25;;;7.51;100.00
13604;BME280;24578;48.264;11.436;2023-02-19T16:29:50;96858.66;;;7.34;100.00
13604;BME280;24578;48.264;11.436;2023-02-19T16:36:24;96860.41;;;7.34;100.00
13604;BME280;24578;48.264;11.436;2023-02-19T16:39:28;96861.22;;;7.34;100.00
13604;BME280;24578;48.264;11.436;2023-02-19T16:42:29;96875.56;;;7.22;100.00
13604;BME280;24578;48.264;11.436;2023-02-19T16:45:30;96869.88;;;7.15;100.00
13604;BME280;24578;48.264;11.436;2023-02-19T16:48:30;96883.53;;;6.98;100.00
13604;BME280;24578;48.264;11.436;2023-02-19T16:51:31;96884.84;;;7.07;100.00
13604;BME280;24578;48.264;11.436;2023-02-19T16:54:31;96899.00;;;6.98;100.00
13604;BME280;24578;48.264;11.436;2023-02-19T16:57:32;96907.03;;;6.92;100.00
13604;BME280;24578;48.264;11.436;2023-02-19T17:00:33;96909.00;;;7.05;100.00
13604;BME280;24578;48.264;11.436;2023-02-19T17:03:37;96911.09;;;6.96;100.00
13604;BME280;24578;48.264;11.436;2023-02-19T17:06:38;96922.47;;;6.92;100.00
13604;BME280;24578;48.264;11.436;2023-02-19T17:09:39;96933.50;;;6.94;100.00
13604;BME280;24578;48.264;11.436;2023-02-19T17:12:39;96925.78;;;6.94;100.00
13604;BME280;24578;48.264;11.436;2023-02-19T17:15:40;96922.94;;;6.81;100.00
13604;BME280;24578;48.264;11.436;2023-02-19T17:18:40;96929.31;;;6.92;100.00
13604;BME280;24578;48.264;11.436;2023-02-19T17:21:41;96920.84;;;6.90;100.00
13604;BME280;24578;48.264;11.436;2023-02-19T17:24:43;96933.22;;;7.00;100.00
13604;BME280;24578;48.264;11.436;2023-02-19T17:27:45;96935.16;;;6.95;100.00
13604;BME280;24578;48.264;11.436;2023-02-19T17:30:45;96955.63;;;6.98;100.00
13604;BME280;24578;48.264;11.436;2023-02-19T17:33:46;96954.63;;;7.01;100.00